createdAt,value
2024-05-09T00:00:39.703Z,57.35
2024-05-09T00:01:36.374Z,56.74
2024-05-09T00:02:36.395Z,56.78
2024-05-09T00:03:36.363Z,59.34
2024-05-09T00:04:36.353Z,59.86
2024-05-09T00:05:37.028Z,58.48
2024-05-09T00:06:36.297Z,59.51
2024-05-09T00:07:36.310Z,56.86
2024-05-09T00:08:36.383Z,61.00
2024-05-09T00:09:36.282Z,59.62
2024-05-09T00:10:38.623Z,58.98
2024-05-09T00:11:36.320Z,56.82
2024-05-09T00:12:36.292Z,57.76
2024-05-09T00:13:36.280Z,59.79
2024-05-09T00:14:36.291Z,56.44
2024-05-09T00:15:36.803Z,56.96
2024-05-09T00:16:36.253Z,56.18
2024-05-09T00:17:36.342Z,57.85
2024-05-09T00:18:36.368Z,57.82
2024-05-09T00:19:36.285Z,57.10
2024-05-09T00:20:39.699Z,57.08
2024-05-09T00:21:36.213Z,59.31
2024-05-09T00:22:36.210Z,59.12
2024-05-09T00:23:36.291Z,58.02
2024-05-09T00:24:36.195Z,58.68
2024-05-09T00:25:36.203Z,61.43
2024-05-09T00:26:36.295Z,58.61
2024-05-09T00:27:36.197Z,60.22
2024-05-09T00:28:36.223Z,55.88
2024-05-09T00:29:36.249Z,55.10
2024-05-09T00:30:37.300Z,59.68
2024-05-09T00:31:36.158Z,60.02
2024-05-09T00:32:36.446Z,61.12
2024-05-09T00:33:36.218Z,60.16
2024-05-09T00:34:36.167Z,59.28
2024-05-09T00:35:36.326Z,55.42
2024-05-09T00:36:36.134Z,54.73
2024-05-09T00:37:36.123Z,55.17
2024-05-09T00:38:36.245Z,57.05
2024-05-09T00:39:36.123Z,55.91
2024-05-09T00:40:39.900Z,56.32
2024-05-09T00:41:37.303Z,55.53
2024-05-09T00:42:36.115Z,56.43
2024-05-09T00:43:36.091Z,55.28
2024-05-09T00:44:36.150Z,55.30
2024-05-09T00:45:36.275Z,55.53
2024-05-09T00:46:36.112Z,54.30
2024-05-09T00:47:36.249Z,52.54
2024-05-09T00:48:36.223Z,53.37
2024-05-09T00:49:36.195Z,56.32
2024-05-09T00:50:37.628Z,56.32
2024-05-09T00:51:36.051Z,56.04
2024-05-09T00:52:36.039Z,57.99
2024-05-09T00:53:36.075Z,59.67
2024-05-09T00:54:36.035Z,59.25
2024-05-09T00:55:36.059Z,58.06
2024-05-09T00:56:36.075Z,53.79
2024-05-09T00:57:36.010Z,55.46
2024-05-09T00:58:36.007Z,55.10
2024-05-09T00:59:36.091Z,56.59
2024-05-09T01:00:39.723Z,59.16
2024-05-09T01:01:37.170Z,54.61
2024-05-09T01:02:36.086Z,55.19
2024-05-09T01:03:36.129Z,56.79
2024-05-09T01:04:36.068Z,55.20
2024-05-09T01:05:36.067Z,54.18
2024-05-09T01:06:35.969Z,54.26
2024-05-09T01:07:35.991Z,59.28
2024-05-09T01:08:36.070Z,55.06
2024-05-09T01:09:35.951Z,55.83
2024-05-09T01:10:36.639Z,55.35
2024-05-09T01:11:36.054Z,56.99
2024-05-09T01:12:35.995Z,57.29
2024-05-09T01:13:35.949Z,54.08
2024-05-09T01:14:35.939Z,55.79
2024-05-09T01:15:36.108Z,56.05
2024-05-09T01:16:35.903Z,51.83
2024-05-09T01:17:36.043Z,51.99
2024-05-09T01:18:36.022Z,52.34
2024-05-09T01:19:35.958Z,55.16
2024-05-09T01:20:41.753Z,55.11
2024-05-09T01:21:36.890Z,50.98
2024-05-09T01:22:35.880Z,52.88
2024-05-09T01:23:35.935Z,54.34
2024-05-09T01:24:35.902Z,55.17
2024-05-09T01:25:35.907Z,56.00
2024-05-09T01:26:35.873Z,54.08
2024-05-09T01:27:35.850Z,54.77
2024-05-09T01:28:35.838Z,55.23
2024-05-09T01:29:35.946Z,56.53
2024-05-09T01:30:37.521Z,55.78
2024-05-09T01:31:35.865Z,55.99
2024-05-09T01:32:35.919Z,51.81
2024-05-09T01:33:35.962Z,53.28
2024-05-09T01:34:35.838Z,54.34
2024-05-09T01:35:35.924Z,56.27
2024-05-09T01:36:35.821Z,54.12
2024-05-09T01:37:35.829Z,56.51
2024-05-09T01:38:35.875Z,55.23
2024-05-09T01:39:35.778Z,53.77
2024-05-09T01:40:38.922Z,54.84
2024-05-09T01:41:35.798Z,56.23
2024-05-09T01:42:35.766Z,54.48
2024-05-09T01:43:35.772Z,55.38
2024-05-09T01:44:35.775Z,56.57
2024-05-09T01:45:35.757Z,53.60
2024-05-09T01:46:35.739Z,57.19
2024-05-09T01:47:35.824Z,58.76
2024-05-09T01:48:35.808Z,57.01
2024-05-09T01:49:35.817Z,56.98
2024-05-09T01:50:39.881Z,57.35
2024-05-09T01:51:36.724Z,56.51
2024-05-09T01:52:35.709Z,55.82
2024-05-09T01:53:35.774Z,52.67
2024-05-09T01:54:35.723Z,55.14
2024-05-09T01:55:35.726Z,55.74
2024-05-09T01:56:35.763Z,55.84
2024-05-09T01:57:35.684Z,57.14
2024-05-09T01:58:35.684Z,56.29
2024-05-09T01:59:35.705Z,54.11
2024-05-09T02:00:40.110Z,57.03
2024-05-09T02:01:55.606Z,56.14
2024-05-09T02:02:36.717Z,55.11
2024-05-09T02:03:35.764Z,57.01
2024-05-09T02:04:35.727Z,56.93
2024-05-09T02:05:35.841Z,55.00
2024-05-09T02:06:35.661Z,52.37
2024-05-09T02:07:35.644Z,56.90
2024-05-09T02:08:35.779Z,53.23
2024-05-09T02:09:35.626Z,56.07
2024-05-09T02:10:35.618Z,57.77
2024-05-09T02:11:35.722Z,56.57
2024-05-09T02:12:35.635Z,54.08
2024-05-09T02:13:35.600Z,55.37
2024-05-09T02:14:35.676Z,54.55
2024-05-09T02:15:35.590Z,57.63
2024-05-09T02:16:35.579Z,58.06
2024-05-09T02:17:35.705Z,56.80
2024-05-09T02:18:35.623Z,52.72
2024-05-09T02:19:35.649Z,54.39
2024-05-09T02:20:36.899Z,55.57
2024-05-09T02:21:35.562Z,54.92
2024-05-09T02:22:35.599Z,57.01
2024-05-09T02:23:35.578Z,54.64
2024-05-09T02:24:35.574Z,56.72
2024-05-09T02:25:35.566Z,56.77
2024-05-09T02:26:35.560Z,52.11
2024-05-09T02:27:35.529Z,52.01
2024-05-09T02:28:35.542Z,54.53
2024-05-09T02:29:35.549Z,55.14
2024-05-09T02:30:40.000Z,53.07
2024-05-09T02:31:36.503Z,56.25
2024-05-09T02:32:35.690Z,52.32
2024-05-09T02:33:35.689Z,55.19
2024-05-09T02:34:35.566Z,56.21
2024-05-09T02:35:35.574Z,53.49
2024-05-09T02:36:35.476Z,55.25
2024-05-09T02:37:35.467Z,54.00
2024-05-09T02:38:35.585Z,56.31
2024-05-09T02:39:35.457Z,56.44
2024-05-09T02:40:38.286Z,54.95
2024-05-09T02:41:35.518Z,56.03
2024-05-09T02:42:35.443Z,54.89
2024-05-09T02:43:35.479Z,50.22
2024-05-09T02:44:35.449Z,51.74
2024-05-09T02:45:35.426Z,59.46
2024-05-09T02:46:35.433Z,59.26
2024-05-09T02:47:35.546Z,63.65
2024-05-09T02:48:35.481Z,62.39
2024-05-09T02:49:35.515Z,59.84
2024-05-09T02:50:39.029Z,59.54
2024-05-09T02:51:35.397Z,60.15
2024-05-09T02:52:35.424Z,62.83
2024-05-09T02:53:35.487Z,61.63
2024-05-09T02:54:35.380Z,62.82
2024-05-09T02:55:35.403Z,61.38
2024-05-09T02:56:35.459Z,61.04
2024-05-09T02:57:35.372Z,62.64
2024-05-09T02:58:35.363Z,61.94
2024-05-09T02:59:35.382Z,62.26
2024-05-09T03:00:39.633Z,62.61
2024-05-09T03:01:36.437Z,62.80
2024-05-09T03:02:35.471Z,61.91
2024-05-09T03:03:35.507Z,62.30
2024-05-09T03:04:35.336Z,62.82
2024-05-09T03:05:35.588Z,63.71
2024-05-09T03:06:35.339Z,63.42
2024-05-09T03:07:35.328Z,61.82
2024-05-09T03:08:35.375Z,63.18
2024-05-09T03:09:35.293Z,63.27
2024-05-09T03:10:37.696Z,64.19
2024-05-09T03:11:35.385Z,63.30
2024-05-09T03:12:37.973Z,64.17
2024-05-09T03:13:35.289Z,63.76
2024-05-09T03:14:35.339Z,62.76
2024-05-09T03:15:35.276Z,62.68
2024-05-09T03:16:35.272Z,62.21
2024-05-09T03:17:35.502Z,62.47
2024-05-09T03:18:35.339Z,63.88
2024-05-09T03:19:35.267Z,60.63
2024-05-09T03:20:36.405Z,60.70
2024-05-09T03:21:35.249Z,61.32
2024-05-09T03:22:35.230Z,61.75
2024-05-09T03:23:35.229Z,60.81
2024-05-09T03:24:35.204Z,58.96
2024-05-09T03:25:35.199Z,57.66
2024-05-09T03:26:35.298Z,56.88
2024-05-09T03:27:35.188Z,56.71
2024-05-09T03:28:35.189Z,58.51
2024-05-09T03:29:35.218Z,58.70
2024-05-09T03:30:40.527Z,58.80
2024-05-09T03:31:36.210Z,57.60
2024-05-09T03:32:35.323Z,60.57
2024-05-09T03:33:35.520Z,60.24
2024-05-09T03:34:35.152Z,57.22
2024-05-09T03:35:35.222Z,57.69
2024-05-09T03:36:35.149Z,58.75
2024-05-09T03:37:35.154Z,58.49
2024-05-09T03:38:35.313Z,57.63
2024-05-09T03:39:35.134Z,59.07
2024-05-09T03:40:35.133Z,57.70
2024-05-09T03:41:35.181Z,57.12
2024-05-09T03:42:35.124Z,59.11
2024-05-09T03:43:35.139Z,58.94
2024-05-09T03:44:35.163Z,56.81
2024-05-09T03:45:35.093Z,55.59
2024-05-09T03:46:35.089Z,56.53
2024-05-09T03:47:35.286Z,54.02
2024-05-09T03:48:35.117Z,56.80
2024-05-09T03:49:35.146Z,55.35
2024-05-09T03:50:36.331Z,53.50
2024-05-09T03:51:35.092Z,55.26
2024-05-09T03:52:35.044Z,56.96
2024-05-09T03:53:35.166Z,55.85
2024-05-09T03:54:35.065Z,55.52
2024-05-09T03:55:35.045Z,55.30
2024-05-09T03:56:35.094Z,55.90
2024-05-09T03:57:35.053Z,56.65
2024-05-09T03:58:35.028Z,57.74
2024-05-09T03:59:35.069Z,58.03
2024-05-09T04:00:38.607Z,56.39
2024-05-09T04:01:36.066Z,54.41
2024-05-09T04:02:35.089Z,57.28
2024-05-09T04:03:35.100Z,55.96
2024-05-09T04:04:35.105Z,55.55
2024-05-09T04:05:35.271Z,57.75
2024-05-09T04:06:34.998Z,57.99
2024-05-09T04:07:34.976Z,57.76
2024-05-09T04:08:35.089Z,57.82
2024-05-09T04:09:34.973Z,58.48
2024-05-09T04:10:35.535Z,56.53
2024-05-09T04:11:35.056Z,56.65
2024-05-09T04:12:34.987Z,58.76
2024-05-09T04:13:34.932Z,57.61
2024-05-09T04:14:35.017Z,55.94
2024-05-09T04:15:34.951Z,56.67
2024-05-09T04:16:34.916Z,57.02
2024-05-09T04:17:35.086Z,58.14
2024-05-09T04:18:35.032Z,57.17
2024-05-09T04:19:34.996Z,56.30
2024-05-09T04:20:39.022Z,56.81
2024-05-09T04:21:35.904Z,56.24
2024-05-09T04:22:34.892Z,57.50
2024-05-09T04:23:35.066Z,56.90
2024-05-09T04:24:34.884Z,58.73
2024-05-09T04:25:35.012Z,57.62
2024-05-09T04:26:34.940Z,57.60
2024-05-09T04:27:34.853Z,57.35
2024-05-09T04:28:34.873Z,58.09
2024-05-09T04:29:34.898Z,56.14
2024-05-09T04:30:39.042Z,56.79
2024-05-09T04:31:35.843Z,57.86
2024-05-09T04:32:35.006Z,57.24
2024-05-09T04:33:35.102Z,56.27
2024-05-09T04:34:34.973Z,57.29
2024-05-09T04:35:34.850Z,59.75
2024-05-09T04:36:34.812Z,58.58
2024-05-09T04:37:34.810Z,56.91
2024-05-09T04:38:34.922Z,57.68
2024-05-09T04:39:34.798Z,57.84
2024-05-09T04:40:36.755Z,58.46
2024-05-09T04:41:34.858Z,57.25
2024-05-09T04:42:34.771Z,57.03
2024-05-09T04:43:34.769Z,56.41
2024-05-09T04:44:34.778Z,58.94
2024-05-09T04:45:35.121Z,56.31
2024-05-09T04:46:34.761Z,55.63
2024-05-09T04:47:34.887Z,56.13
2024-05-09T04:48:34.805Z,58.16
2024-05-09T04:49:34.947Z,57.51
2024-05-09T04:50:38.246Z,57.95
2024-05-09T04:51:34.747Z,56.30
2024-05-09T04:52:34.725Z,57.50
2024-05-09T04:53:34.775Z,57.26
2024-05-09T04:54:36.576Z,59.06
2024-05-09T04:55:34.744Z,58.89
2024-05-09T04:56:34.772Z,57.58
2024-05-09T04:57:34.715Z,57.90
2024-05-09T04:58:34.718Z,55.78
2024-05-09T04:59:34.755Z,57.65
2024-05-09T05:00:37.373Z,54.71
2024-05-09T05:01:34.746Z,58.69
2024-05-09T05:02:34.754Z,58.61
2024-05-09T05:03:34.804Z,58.91
2024-05-09T05:04:34.687Z,58.02
2024-05-09T05:05:34.718Z,57.90
2024-05-09T05:06:34.690Z,58.70
2024-05-09T05:07:34.643Z,56.08
2024-05-09T05:08:34.722Z,58.37
2024-05-09T05:09:34.631Z,59.12
2024-05-09T05:10:36.577Z,58.70
2024-05-09T05:11:34.727Z,59.42
2024-05-09T05:12:34.818Z,57.20
2024-05-09T05:13:36.653Z,56.52
2024-05-09T05:14:34.646Z,56.33
2024-05-09T05:15:34.599Z,58.42
2024-05-09T05:16:34.589Z,56.77
2024-05-09T05:17:34.831Z,58.67
2024-05-09T05:18:34.674Z,60.14
2024-05-09T05:19:34.763Z,59.18
2024-05-09T05:20:34.741Z,57.66
2024-05-09T05:21:34.648Z,57.16
2024-05-09T05:22:34.559Z,55.58
2024-05-09T05:23:34.793Z,59.01
2024-05-09T05:24:34.560Z,56.73
2024-05-09T05:25:34.565Z,56.52
2024-05-09T05:26:34.764Z,58.86
2024-05-09T05:27:34.532Z,55.30
2024-05-09T05:28:34.543Z,55.53
2024-05-09T05:29:34.658Z,58.19
2024-05-09T05:30:35.190Z,57.00
2024-05-09T05:31:34.538Z,57.63
2024-05-09T05:32:34.730Z,58.86
2024-05-09T05:33:34.659Z,58.68
2024-05-09T05:34:34.491Z,57.29
2024-05-09T05:35:34.793Z,57.45
2024-05-09T05:36:34.481Z,59.01
2024-05-09T05:37:34.466Z,57.82
2024-05-09T05:38:34.549Z,56.89
2024-05-09T05:39:34.500Z,58.63
2024-05-09T05:40:37.221Z,58.95
2024-05-09T05:41:34.544Z,56.83
2024-05-09T05:42:34.441Z,57.89
2024-05-09T05:43:34.438Z,57.33
2024-05-09T05:44:34.457Z,58.87
2024-05-09T05:45:34.451Z,58.71
2024-05-09T05:46:34.419Z,58.62
2024-05-09T05:47:34.729Z,58.75
2024-05-09T05:48:34.558Z,59.81
2024-05-09T05:49:34.485Z,56.07
2024-05-09T05:50:37.000Z,55.61
2024-05-09T05:51:34.410Z,58.29
2024-05-09T05:52:34.390Z,56.52
2024-05-09T05:53:34.725Z,58.72
2024-05-09T05:54:34.375Z,57.38
2024-05-09T05:55:34.405Z,60.36
2024-05-09T05:56:34.439Z,59.09
2024-05-09T05:57:34.372Z,59.55
2024-05-09T05:58:34.351Z,59.50
2024-05-09T05:59:34.519Z,60.42
2024-05-09T06:00:38.436Z,58.63
2024-05-09T06:01:35.419Z,58.37
2024-05-09T06:02:34.470Z,59.06
2024-05-09T06:03:34.355Z,56.55
2024-05-09T06:04:34.426Z,58.30
2024-05-09T06:05:34.376Z,58.56
2024-05-09T06:06:34.339Z,58.21
2024-05-09T06:07:34.313Z,57.97
2024-05-09T06:08:34.387Z,56.53
2024-05-09T06:09:34.301Z,57.39
2024-05-09T06:10:38.528Z,58.37
2024-05-09T06:11:35.369Z,58.83
2024-05-09T06:12:34.280Z,57.12
2024-05-09T06:13:34.284Z,59.10
2024-05-09T06:14:34.323Z,57.10
2024-05-09T06:15:34.432Z,57.81
2024-05-09T06:16:34.265Z,57.18
2024-05-09T06:17:34.388Z,54.86
2024-05-09T06:18:34.347Z,57.57
2024-05-09T06:19:34.302Z,55.98
2024-05-09T06:20:37.124Z,57.95
2024-05-09T06:21:34.284Z,57.81
2024-05-09T06:22:34.214Z,56.06
2024-05-09T06:23:34.336Z,57.92
2024-05-09T06:24:34.210Z,59.54
2024-05-09T06:25:34.214Z,57.73
2024-05-09T06:26:34.256Z,57.55
2024-05-09T06:27:34.208Z,59.38
2024-05-09T06:28:34.179Z,59.22
2024-05-09T06:29:34.193Z,59.65
2024-05-09T06:30:38.530Z,58.10
2024-05-09T06:31:35.168Z,57.48
2024-05-09T06:32:34.334Z,56.53
2024-05-09T06:33:34.642Z,58.40
2024-05-09T06:34:34.204Z,58.53
2024-05-09T06:35:34.401Z,60.20
2024-05-09T06:36:34.138Z,60.11
2024-05-09T06:37:34.128Z,57.05
2024-05-09T06:38:34.300Z,58.34
2024-05-09T06:39:34.130Z,58.94
2024-05-09T06:40:37.911Z,56.96
2024-05-09T06:41:35.140Z,56.68
2024-05-09T06:42:34.093Z,58.63
2024-05-09T06:43:34.104Z,59.03
2024-05-09T06:44:34.160Z,59.76
2024-05-09T06:45:34.069Z,58.93
2024-05-09T06:46:34.071Z,60.17
2024-05-09T06:47:34.259Z,59.47
2024-05-09T06:48:34.304Z,57.54
2024-05-09T06:49:34.113Z,58.59
2024-05-09T06:50:37.772Z,59.77
2024-05-09T06:51:35.062Z,59.75
2024-05-09T06:52:34.020Z,59.16
2024-05-09T06:53:34.188Z,59.26
2024-05-09T06:54:34.040Z,59.41
2024-05-09T06:55:34.023Z,60.37
2024-05-09T06:56:34.110Z,60.69
2024-05-09T06:57:34.003Z,59.74
2024-05-09T06:58:33.976Z,60.61
2024-05-09T06:59:33.999Z,59.30
2024-05-09T07:00:38.671Z,60.33
2024-05-09T07:01:35.017Z,58.85
2024-05-09T07:02:34.149Z,61.01
2024-05-09T07:03:34.059Z,59.56
2024-05-09T07:04:34.144Z,59.75
2024-05-09T07:05:34.054Z,59.91
2024-05-09T07:06:33.942Z,61.48
2024-05-09T07:07:33.922Z,57.95
2024-05-09T07:08:34.087Z,60.76
2024-05-09T07:09:33.900Z,59.43
2024-05-09T07:10:35.553Z,59.57
2024-05-09T07:11:33.991Z,60.50
2024-05-09T07:12:34.045Z,59.71
2024-05-09T07:13:33.906Z,60.04
2024-05-09T07:14:34.750Z,58.63
2024-05-09T07:15:33.857Z,58.99
2024-05-09T07:16:33.852Z,56.96
2024-05-09T07:17:33.883Z,58.46
2024-05-09T07:18:33.924Z,58.17
2024-05-09T07:19:33.883Z,58.09
2024-05-09T07:20:35.118Z,59.34
2024-05-09T07:21:33.804Z,59.55
2024-05-09T07:22:33.795Z,58.72
2024-05-09T07:23:33.980Z,57.58
2024-05-09T07:24:33.798Z,58.18
2024-05-09T07:25:33.766Z,57.26
2024-05-09T07:26:33.891Z,57.63
2024-05-09T07:27:33.745Z,57.57
2024-05-09T07:28:33.754Z,56.60
2024-05-09T07:29:36.272Z,57.92
2024-05-09T07:30:34.824Z,58.52
2024-05-09T07:31:33.753Z,58.87
2024-05-09T07:32:33.984Z,57.40
2024-05-09T07:33:33.783Z,57.79
2024-05-09T07:34:33.794Z,57.25
2024-05-09T07:35:33.860Z,57.23
2024-05-09T07:36:33.698Z,58.00
2024-05-09T07:37:33.699Z,58.14
2024-05-09T07:38:33.706Z,59.21
2024-05-09T07:39:33.681Z,57.83
2024-05-09T07:40:36.531Z,57.25
2024-05-09T07:41:33.754Z,58.69
2024-05-09T07:42:33.628Z,58.89
2024-05-09T07:43:33.628Z,58.03
2024-05-09T07:44:33.638Z,57.02
2024-05-09T07:50:34.275Z,58.18
2024-05-09T07:52:23.089Z,57.18
2024-05-09T07:53:33.195Z,59.78
2024-05-09T07:53:42.051Z,57.51
2024-05-09T07:54:34.684Z,57.68
2024-05-09T07:55:33.592Z,56.92
2024-05-09T07:56:33.636Z,57.79
2024-05-09T07:57:33.648Z,57.20
2024-05-09T07:58:33.529Z,56.79
2024-05-09T07:59:37.100Z,58.59
2024-05-09T08:00:33.643Z,57.06
2024-05-09T08:01:33.654Z,58.05
2024-05-09T08:02:33.733Z,56.38
2024-05-09T08:03:33.753Z,57.00
2024-05-09T08:04:33.600Z,59.13
2024-05-09T08:05:33.664Z,58.03
2024-05-09T08:06:33.477Z,57.96
2024-05-09T08:07:33.451Z,57.57
2024-05-09T08:08:33.448Z,57.24
2024-05-09T08:09:34.676Z,57.36
2024-05-09T08:10:33.459Z,61.04
2024-05-09T08:11:33.499Z,57.97
2024-05-09T08:12:33.437Z,56.62
2024-05-09T08:13:33.448Z,56.95
2024-05-09T08:14:33.428Z,57.37
2024-05-09T08:15:33.443Z,57.54
2024-05-09T08:16:33.474Z,56.94
2024-05-09T08:17:33.498Z,57.22
2024-05-09T08:18:33.684Z,57.04
2024-05-09T08:19:33.419Z,56.89
2024-05-09T08:20:35.313Z,58.14
2024-05-09T08:21:33.394Z,56.62
2024-05-09T08:22:33.373Z,57.87
2024-05-09T08:23:33.361Z,57.72
2024-05-09T08:24:33.394Z,57.24
2024-05-09T08:25:33.326Z,57.26
2024-05-09T08:26:33.361Z,55.75
2024-05-09T08:27:33.338Z,57.55
2024-05-09T08:28:33.315Z,57.17
2024-05-09T08:29:33.330Z,57.72
2024-05-09T08:30:37.013Z,57.19
2024-05-09T08:31:33.355Z,57.04
2024-05-09T08:32:33.413Z,58.41
2024-05-09T08:33:33.520Z,55.19
2024-05-09T08:34:33.314Z,55.65
2024-05-09T08:35:33.260Z,56.99
2024-05-09T08:36:33.297Z,56.65
2024-05-09T08:37:38.676Z,57.17
2024-05-09T08:38:34.240Z,56.04
2024-05-09T08:39:33.351Z,56.86
2024-05-09T08:40:35.988Z,57.13
2024-05-09T08:41:33.221Z,56.41
2024-05-09T08:42:33.241Z,57.23
2024-05-09T08:43:33.212Z,56.62
2024-05-09T08:44:33.202Z,57.70
2024-05-09T08:45:33.275Z,56.86
2024-05-09T08:46:33.276Z,57.19
2024-05-09T08:47:33.227Z,54.79
2024-05-09T08:48:33.458Z,56.76
2024-05-09T08:49:33.179Z,56.82
2024-05-09T08:50:38.542Z,56.78
2024-05-09T08:51:34.161Z,59.08
2024-05-09T08:52:33.148Z,57.34
2024-05-09T08:53:33.128Z,56.78
2024-05-09T08:54:33.188Z,55.71
2024-05-09T08:55:33.122Z,57.90
2024-05-09T08:56:33.197Z,56.00
2024-05-09T08:57:33.121Z,56.75
2024-05-09T08:58:33.121Z,57.69
2024-05-09T08:59:33.093Z,56.41
2024-05-09T09:00:36.996Z,55.74
2024-05-09T09:01:33.233Z,56.51
2024-05-09T09:02:33.278Z,56.31
2024-05-09T09:03:33.381Z,57.32
2024-05-09T09:04:33.156Z,56.29
2024-05-09T09:05:33.175Z,57.47
2024-05-09T09:06:33.090Z,58.99
2024-05-09T09:07:33.067Z,56.52
2024-05-09T09:08:33.089Z,55.81
2024-05-09T09:09:33.097Z,55.88
2024-05-09T09:10:33.564Z,55.81
2024-05-09T09:11:33.035Z,56.83
2024-05-09T09:12:33.080Z,56.51
2024-05-09T09:13:33.033Z,57.76
2024-05-09T09:14:33.021Z,58.15
2024-05-09T09:15:33.336Z,55.78
2024-05-09T09:16:33.035Z,56.70
2024-05-09T09:17:33.028Z,55.86
2024-05-09T09:18:33.297Z,55.70
2024-05-09T09:19:33.072Z,56.61
2024-05-09T09:20:36.540Z,56.26
2024-05-09T09:21:33.003Z,56.20
2024-05-09T09:22:32.940Z,56.18
2024-05-09T09:23:32.966Z,55.41
2024-05-09T09:24:32.957Z,56.21
2024-05-09T09:25:32.928Z,56.29
2024-05-09T09:26:32.928Z,56.36
2024-05-09T09:27:32.944Z,56.32
2024-05-09T09:28:32.914Z,56.56
2024-05-09T09:29:32.895Z,55.90
2024-05-09T09:30:37.317Z,55.71
2024-05-09T09:31:34.174Z,55.59
2024-05-09T09:32:33.039Z,55.61
2024-05-09T09:33:33.382Z,56.63
2024-05-09T09:34:32.999Z,55.93
2024-05-09T09:35:32.974Z,56.23
2024-05-09T09:36:32.908Z,56.33
2024-05-09T09:37:32.821Z,55.76
2024-05-09T09:38:32.828Z,55.24
2024-05-09T09:39:32.834Z,56.02
2024-05-09T09:40:34.950Z,55.53
2024-05-09T09:41:32.802Z,56.24
2024-05-09T09:42:32.827Z,56.78
2024-05-09T09:43:32.808Z,55.41
2024-05-09T09:44:33.043Z,55.24
2024-05-09T09:45:32.797Z,57.12
2024-05-09T09:46:32.932Z,56.63
2024-05-09T09:47:32.833Z,56.68
2024-05-09T09:48:32.816Z,56.13
2024-05-09T09:49:32.845Z,56.88
2024-05-09T09:50:34.825Z,55.58
2024-05-09T09:51:32.790Z,54.96
2024-05-09T09:52:32.778Z,56.26
2024-05-09T09:53:32.720Z,55.91
2024-05-09T09:54:32.739Z,57.12
2024-05-09T09:55:32.694Z,57.14
2024-05-09T09:56:32.716Z,56.47
2024-05-09T09:57:32.762Z,56.43
2024-05-09T09:58:32.738Z,57.52
2024-05-09T09:59:32.668Z,57.32
2024-05-09T10:00:33.804Z,57.86
2024-05-09T10:01:32.813Z,57.57
2024-05-09T10:02:32.834Z,56.15
2024-05-09T10:03:32.875Z,56.56
2024-05-09T10:04:32.791Z,56.42
2024-05-09T10:05:32.700Z,57.70
2024-05-09T10:06:32.692Z,57.46
2024-05-09T10:07:32.620Z,58.54
2024-05-09T10:08:32.619Z,57.27
2024-05-09T10:09:32.625Z,55.54
2024-05-09T10:10:33.342Z,56.53
2024-05-09T10:11:37.034Z,56.45
2024-05-09T10:12:33.742Z,54.66
2024-05-09T10:13:32.663Z,55.68
2024-05-09T10:14:32.573Z,55.86
2024-05-09T10:15:32.643Z,55.31
2024-05-09T10:16:32.620Z,56.21
2024-05-09T10:17:32.799Z,57.05
2024-05-09T10:18:34.385Z,56.73
2024-05-09T10:19:32.698Z,58.67
2024-05-09T10:20:33.077Z,56.82
2024-05-09T10:21:32.558Z,56.03
2024-05-09T10:22:32.533Z,55.57
2024-05-09T10:23:32.722Z,55.59
2024-05-09T10:24:32.559Z,55.24
2024-05-09T10:25:32.683Z,55.50
2024-05-09T10:26:32.519Z,55.64
2024-05-09T10:27:32.505Z,56.68
2024-05-09T10:28:32.471Z,57.20
2024-05-09T10:29:32.478Z,56.97
2024-05-09T10:30:35.997Z,57.36
2024-05-09T10:31:32.578Z,57.70
2024-05-09T10:32:32.630Z,57.53
2024-05-09T10:33:32.652Z,57.99
2024-05-09T10:34:32.669Z,57.11
2024-05-09T10:35:32.415Z,57.46
2024-05-09T10:36:32.456Z,56.97
2024-05-09T10:37:32.489Z,58.67
2024-05-09T10:38:32.406Z,56.63
2024-05-09T10:39:32.445Z,57.10
2024-05-09T10:40:32.533Z,56.20
2024-05-09T10:41:32.375Z,57.13
2024-05-09T10:42:32.470Z,56.79
2024-05-09T10:43:32.364Z,55.52
2024-05-09T10:44:32.368Z,56.35
2024-05-09T10:45:32.401Z,56.11
2024-05-09T10:46:32.341Z,56.06
2024-05-09T10:47:32.384Z,57.55
2024-05-09T10:48:32.547Z,57.13
2024-05-09T10:49:32.434Z,56.53
2024-05-09T10:50:34.437Z,58.82
2024-05-09T10:51:32.361Z,56.31
2024-05-09T10:52:32.301Z,56.87
2024-05-09T10:53:32.315Z,56.99
2024-05-09T10:54:32.331Z,56.93
2024-05-09T10:55:32.343Z,55.78
2024-05-09T10:56:32.299Z,56.37
2024-05-09T10:57:32.298Z,58.64
2024-05-09T10:58:32.278Z,56.97
2024-05-09T10:59:32.286Z,55.71
2024-05-09T11:00:36.030Z,58.10
2024-05-09T11:01:32.410Z,54.91
2024-05-09T11:02:32.394Z,60.77
2024-05-09T11:03:32.432Z,57.70
2024-05-09T11:04:32.258Z,58.08
2024-05-09T11:05:32.380Z,57.59
2024-05-09T11:06:32.314Z,56.61
2024-05-09T11:07:32.279Z,56.05
2024-05-09T11:08:35.212Z,56.11
2024-05-09T11:09:32.344Z,56.90
2024-05-09T11:10:34.332Z,56.84
2024-05-09T11:11:32.193Z,56.84
2024-05-09T11:12:32.286Z,57.05
2024-05-09T11:13:32.329Z,56.44
2024-05-09T11:14:32.145Z,55.10
2024-05-09T11:15:32.177Z,56.09
2024-05-09T11:16:32.195Z,55.68
2024-05-09T11:17:32.188Z,55.72
2024-05-09T11:18:36.206Z,55.47
2024-05-09T11:19:33.220Z,56.75
2024-05-09T11:20:35.022Z,57.57
2024-05-09T11:21:32.106Z,56.51
2024-05-09T11:22:32.086Z,57.10
2024-05-09T11:23:32.140Z,56.06
2024-05-09T11:24:32.087Z,55.16
2024-05-09T11:25:32.070Z,56.19
2024-05-09T11:26:32.060Z,56.23
2024-05-09T11:27:32.100Z,55.03
2024-05-09T11:28:32.042Z,56.66
2024-05-09T11:29:32.046Z,55.57
2024-05-09T11:30:32.742Z,54.98
2024-05-09T11:31:32.152Z,55.03
2024-05-09T11:32:32.107Z,54.68
2024-05-09T11:33:32.120Z,56.55
2024-05-09T11:34:32.130Z,55.78
2024-05-09T11:35:31.988Z,55.30
2024-05-09T11:36:32.096Z,56.66
2024-05-09T11:37:34.601Z,54.22
2024-05-09T11:38:31.976Z,56.60
2024-05-09T11:39:32.065Z,55.75
2024-05-09T11:41:31.944Z,56.06
2024-05-09T11:42:31.955Z,55.77
2024-05-09T11:43:32.109Z,55.38
2024-05-09T11:44:31.930Z,56.71
2024-05-09T11:45:32.022Z,57.04
2024-05-09T11:46:31.912Z,56.72
2024-05-09T11:47:32.052Z,55.72
2024-05-09T11:48:32.366Z,56.75
2024-05-09T11:49:32.021Z,58.16
2024-05-09T11:50:35.477Z,57.07
2024-05-09T11:51:31.966Z,56.46
2024-05-09T11:52:31.870Z,57.79
2024-05-09T11:53:31.877Z,56.13
2024-05-09T11:54:31.875Z,58.13
2024-05-09T11:55:31.941Z,54.52
2024-05-09T11:56:31.877Z,54.71
2024-05-09T11:57:31.870Z,55.28
2024-05-09T11:58:31.887Z,55.31
2024-05-09T11:59:31.828Z,53.77
2024-05-09T12:00:36.709Z,55.44
2024-05-09T12:01:32.951Z,54.14
2024-05-09T12:02:31.922Z,54.12
2024-05-09T12:03:31.948Z,54.20
2024-05-09T12:04:32.009Z,53.42
2024-05-09T12:05:31.973Z,55.38
2024-05-09T12:06:31.813Z,53.72
2024-05-09T12:07:31.843Z,54.48
2024-05-09T12:08:31.760Z,55.05
2024-05-09T12:09:31.778Z,54.04
2024-05-09T12:10:34.458Z,56.03
2024-05-09T12:11:31.764Z,53.51
2024-05-09T12:12:32.954Z,53.97
2024-05-09T12:13:31.809Z,52.90
2024-05-09T12:14:31.710Z,54.67
2024-05-09T12:15:31.743Z,54.40
2024-05-09T12:16:32.055Z,54.46
2024-05-09T12:17:31.824Z,55.17
2024-05-09T12:18:31.773Z,54.37
2024-05-09T12:19:31.723Z,55.04
2024-05-09T12:21:31.718Z,55.60
2024-05-09T12:22:31.660Z,53.77
2024-05-09T12:23:31.675Z,56.64
2024-05-09T12:24:31.653Z,57.92
2024-05-09T12:25:31.637Z,54.25
2024-05-09T12:26:31.646Z,55.07
2024-05-09T12:27:31.658Z,56.95
2024-05-09T12:28:31.634Z,56.89
2024-05-09T12:29:31.615Z,55.28
2024-05-09T12:30:37.490Z,57.49
2024-05-09T12:31:32.761Z,55.57
2024-05-09T12:32:31.646Z,55.61
2024-05-09T12:33:31.636Z,55.29
2024-05-09T12:34:31.689Z,55.97
2024-05-09T12:35:31.577Z,55.60
2024-05-09T12:36:31.609Z,55.87
2024-05-09T12:37:31.552Z,56.73
2024-05-09T12:38:31.554Z,55.15
2024-05-09T12:39:31.602Z,53.40
2024-05-09T12:40:36.401Z,54.87
2024-05-09T12:41:32.548Z,54.77
2024-05-09T12:42:33.710Z,55.08
2024-05-09T12:43:31.616Z,56.49
2024-05-09T12:44:31.495Z,56.69
2024-05-09T12:45:31.646Z,54.54
2024-05-09T12:46:31.548Z,54.44
2024-05-09T12:47:31.527Z,54.04
2024-05-09T12:48:31.618Z,52.11
2024-05-09T12:49:31.620Z,55.29
2024-05-09T12:50:33.586Z,53.49
2024-05-09T12:51:31.514Z,54.60
2024-05-09T12:52:31.441Z,54.81
2024-05-09T12:53:31.432Z,54.63
2024-05-09T12:54:31.459Z,55.76
2024-05-09T12:55:37.366Z,55.58
2024-05-09T12:56:32.418Z,54.83
2024-05-09T12:57:31.463Z,54.42
2024-05-09T12:58:31.397Z,53.47
2024-05-09T12:59:31.394Z,54.41